Time;durP1;ratioP1;P1;durP2;ratioP2;P2;SDS_P1;SDS_P2;PMS_P1;PMS_P2;Temp;Humidity;BMP_temperature;BMP_pressure;BME280_temperature;BME280_humidity;BME280_pressure;Samples;Min_cycle;Max_cycle;Signal;HPM_P1;HPM_P2
2022/08/18 00:02:16;;;;;;;1999.90;999.90;;;;;;;22.38;67.22;95068.88;4992001;28;20056;-76
2022/08/18 00:04:42;;;;;;;1999.90;999.90;;;;;;;22.82;65.28;95073.25;4994016;28;20545;-75
2022/08/18 00:07:14;;;;;;;1999.90;999.90;;;;;;;22.61;66.03;95082.09;4991539;28;20058;-76
2022/08/18 00:09:40;;;;;;;;;;;;;;;22.73;65.22;95075.56;4993608;28;20030;-75
2022/08/18 00:12:16;;;;;;;1999.90;999.90;;;;;;;22.44;66.18;95069.25;4992734;28;19913;-74
2022/08/18 00:14:42;;;;;;;1999.90;999.90;;;;;;;21.50;70.08;95065.25;5004634;28;20085;-75
2022/08/18 00:17:08;;;;;;;1999.90;999.90;;;;;;;21.58;69.94;95060.63;4991891;28;20157;-75
2022/08/18 00:19:33;;;;;;;1999.90;999.90;;;;;;;21.69;69.25;95050.66;4991561;28;20058;-75
2022/08/18 00:21:58;;;;;;;1999.90;999.90;;;;;;;22.47;66.20;95060.34;4992604;28;20027;-74
2022/08/18 00:24:25;;;;;;;1999.90;999.90;;;;;;;22.24;66.38;95069.56;4991625;28;20134;-74
2022/08/18 00:26:50;;;;;;;1999.90;999.90;;;;;;;22.56;65.72;95071.63;4991480;28;20037;-75
2022/08/18 00:29:15;;;;;;;1999.90;999.90;;;;;;;22.67;64.88;95061.59;4992116;28;20199;-74
2022/08/18 00:31:41;;;;;;;1999.90;999.90;;;;;;;22.53;65.20;95069.69;4990629;28;20471;-74
2022/08/18 00:34:06;;;;;;;1999.90;999.90;;;;;;;22.76;64.13;95069.38;4992442;28;20030;-74
2022/08/18 00:36:33;;;;;;;1999.90;999.90;;;;;;;23.17;63.22;95066.38;4992912;28;20634;-74
2022/08/18 00:38:59;;;;;;;1999.90;999.90;;;;;;;23.49;61.70;95061.75;4991905;28;20050;-74
2022/08/18 00:41:25;;;;;;;1999.90;999.90;;;;;;;23.41;61.74;95062.13;4993247;28;20467;-75
2022/08/18 00:43:51;;;;;;;1999.90;999.90;;;;;;;23.28;61.91;95065.19;4990488;28;20026;-75
2022/08/18 00:46:21;;;;;;;1999.90;999.90;;;;;;;23.42;61.92;95064.44;4991157;28;20029;-74
2022/08/18 00:48:48;;;;;;;1999.90;999.90;;;;;;;22.86;63.02;95036.06;4988512;28;20073;-74
2022/08/18 00:51:21;;;;;;;1999.90;999.90;;;;;;;22.11;66.53;95046.69;4992804;28;20457;-74
2022/08/18 00:54:00;;;;;;;1999.90;999.90;;;;;;;21.87;67.98;95033.75;4992625;28;20053;-75
2022/08/18 00:56:32;;;;;;;1999.90;999.90;;;;;;;22.51;65.35;95036.75;4991646;28;20026;-74
2022/08/18 00:59:04;;;;;;;1999.90;999.90;;;;;;;22.99;63.07;95039.22;4988156;28;20030;-75
2022/08/18 01:01:33;;;;;;;1999.90;999.90;;;;;;;23.04;63.33;95058.59;4991586;28;20045;-76
2022/08/18 01:04:12;;;;;;;1999.90;999.90;;;;;;;23.28;62.45;95076.06;4991476;28;20030;-74
2022/08/18 01:06:50;;;;;;;1999.90;999.90;;;;;;;23.43;61.97;95079.56;4990539;28;20040;-75
2022/08/18 01:09:16;;;;;;;1999.90;999.90;;;;;;;22.78;63.45;95067.84;4989232;28;20034;-75
2022/08/18 01:11:43;;;;;;;1999.90;999.90;;;;;;;22.99;64.11;95069.84;4990999;28;20395;-76
2022/08/18 01:14:09;;;;;;;1999.90;999.90;;;;;;;23.32;63.43;95060.56;4990025;28;20026;-75
2022/08/18 01:22:14;;;;;;;1999.90;999.90;;;;;;;22.52;65.92;95096.03;4987808;28;20112;-75
2022/08/18 01:27:25;;;;;;;1999.90;999.90;;;;;;;23.12;63.48;95080.31;4990870;28;20049;-76
2022/08/18 01:29:51;;;;;;;1999.90;999.90;;;;;;;22.43;65.63;95095.59;4990098;28;20141;-75
2022/08/18 01:32:20;;;;;;;1999.90;999.90;;;;;;;22.45;65.53;95070.81;4991038;28;20136;-76
2022/08/18 01:34:47;;;;;;;1999.90;999.90;;;;;;;22.72;64.52;95085.59;4990281;28;20030;-74
2022/08/18 01:37:19;;;;;;;1999.90;999.90;;;;;;;22.59;64.33;95068.16;4990089;28;20033;-75
2022/08/18 01:39:45;;;;;;;1999.90;999.90;;;;;;;22.65;63.86;95069.34;4992210;28;20037;-74
2022/08/18 01:42:13;;;;;;;1999.90;999.90;;;;;;;22.51;64.46;95077.41;4991300;28;20050;-74
2022/08/18 01:44:41;;;;;;;1999.90;999.90;;;;;;;22.41;64.37;95045.63;4989150;28;20034;-74
2022/08/18 01:47:09;;;;;;;1999.90;999.90;;;;;;;22.06;65.40;95052.44;4991002;28;20042;-73
2022/08/18 01:49:35;;;;;;;1999.90;999.90;;;;;;;22.47;64.18;95063.06;4989494;28;20027;-75
2022/08/18 01:52:00;;;;;;;1999.90;999.90;;;;;;;22.01;65.22;95045.44;4990553;28;20022;-73
2022/08/18 01:54:28;;;;;;;1999.90;999.90;;;;;;;21.89;65.06;95007.84;4987532;28;20403;-74
2022/08/18 01:56:55;;;;;;;1999.90;999.90;;;;;;;21.68;65.10;94986.84;4989807;28;20026;-74
2022/08/18 01:59:20;;;;;;;1999.90;999.90;;;;;;;21.76;64.85;94990.38;4990444;28;20101;-73
2022/08/18 02:01:47;;;;;;;1999.90;999.90;;;;;;;22.06;63.62;95009.09;4990283;28;20038;-73
2022/08/18 02:04:14;;;;;;;1999.90;999.90;;;;;;;21.77;64.86;95002.75;4990194;28;20073;-73
2022/08/18 02:06:40;;;;;;;1999.90;999.90;;;;;;;22.05;63.58;95002.88;4990108;28;20022;-74
2022/08/18 02:09:06;;;;;;;1999.90;999.90;;;;;;;22.21;63.49;95012.66;4988257;28;20026;-73
2022/08/18 02:11:31;;;;;;;1999.90;999.90;;;;;;;22.16;63.28;95010.31;4989962;28;20105;-73
2022/08/18 02:13:57;;;;;;;1999.90;999.90;;;;;;;22.47;62.82;95027.84;4989174;28;20030;-73
2022/08/18 02:16:22;;;;;;;1999.90;999.90;;;;;;;22.35;64.00;95052.56;4989669;28;20030;-73
2022/08/18 02:18:47;;;;;;;1999.90;999.90;;;;;;;22.40;63.34;95055.69;4990135;28;20093;-73
2022/08/18 02:21:16;;;;;;;1999.90;999.90;;;;;;;22.37;62.83;95044.84;4989282;28;20426;-73
2022/08/18 02:23:43;;;;;;;1999.90;999.90;;;;;;;22.05;64.85;95053.56;4974025;28;20031;-73
2022/08/18 02:26:12;;;;;;;1999.90;999.90;;;;;;;22.29;63.70;95046.75;4971525;28;20440;-74
2022/08/18 02:28:37;;;;;;;1999.90;999.90;;;;;;;22.03;63.71;95018.75;4982945;28;20026;-73
2022/08/18 02:31:09;;;;;;;1999.90;999.90;;;;;;;22.38;63.14;95054.53;4989061;28;20073;-73
2022/08/18 02:33:35;;;;;;;1999.90;999.90;;;;;;;22.12;63.02;94991.34;4988551;28;20034;-73
2022/08/18 02:36:01;;;;;;;1999.90;999.90;;;;;;;22.29;62.98;94993.34;4990612;28;20517;-73
2022/08/18 02:38:27;;;;;;;1999.90;999.90;;;;;;;22.21;62.34;94980.13;4988612;28;20045;-74
2022/08/18 02:40:57;;;;;;;1999.90;999.90;;;;;;;22.36;61.94;94997.22;4989999;28;20073;-74
2022/08/18 02:43:23;;;;;;;1999.90;999.90;;;;;;;22.15;62.00;94970.84;4988542;28;20469;-74
2022/08/18 02:45:48;;;;;;;1999.90;999.90;;;;;;;22.37;61.92;94986.00;4987607;28;20105;-74
2022/08/18 02:48:13;;;;;;;1999.90;999.90;;;;;;;22.44;61.50;95002.28;4988274;28;20484;-74
2022/08/18 02:50:46;;;;;;;1999.90;999.90;;;;;;;22.23;61.86;94970.47;4989305;28;20109;-73
2022/08/18 02:53:17;;;;;;;1999.90;999.90;;;;;;;21.96;62.84;94978.09;4988964;28;20022;-73
2022/08/18 02:55:43;;;;;;;1999.90;999.90;;;;;;;22.25;61.78;94986.34;4989457;28;20080;-74
2022/08/18 02:58:08;;;;;;;1999.90;999.90;;;;;;;22.07;61.77;94956.47;4988579;28;20483;-74
2022/08/18 03:00:33;;;;;;;1999.90;999.90;;;;;;;22.24;61.84;94995.63;4987819;28;20030;-74
2022/08/18 03:02:59;;;;;;;1999.90;999.90;;;;;;;22.16;61.97;94989.44;4988722;28;20022;-74
2022/08/18 03:05:27;;;;;;;1999.90;999.90;;;;;;;22.34;61.85;95016.56;4988365;28;20062;-74
2022/08/18 03:07:53;;;;;;;1999.90;999.90;;;;;;;22.23;61.65;94989.44;4987688;28;20632;-74
2022/08/18 03:10:18;;;;;;;1999.90;999.90;;;;;;;22.20;61.92;94998.31;4988489;28;20682;-73
2022/08/18 03:12:44;;;;;;;1999.90;999.90;;;;;;;22.26;62.03;95020.41;4970148;28;20073;-74
2022/08/18 03:15:11;;;;;;;1999.90;999.90;;;;;;;21.96;62.01;94956.44;4985352;28;20113;-73
2022/08/18 03:17:36;;;;;;;1999.90;999.90;;;;;;;22.38;61.63;95036.34;4985685;28;20035;-73
2022/08/18 03:20:02;;;;;;;1999.90;999.90;;;;;;;22.37;62.06;95021.25;4989559;28;20022;-74
2022/08/18 03:22:28;;;;;;;1999.90;999.90;;;;;;;22.03;62.39;94983.53;4988649;28;20114;-74
2022/08/18 03:24:53;;;;;;;1999.90;999.90;;;;;;;21.84;63.26;95000.06;4988198;28;20035;-74
2022/08/18 03:27:18;;;;;;;1999.90;999.90;;;;;;;21.86;63.10;95007.84;4988638;28;20061;-73
2022/08/18 03:29:44;;;;;;;1999.90;999.90;;;;;;;21.73;62.88;94950.53;4990169;28;20383;-74
2022/08/18 03:32:09;;;;;;;1999.90;999.90;;;;;;;21.69;63.50;94977.56;4987540;28;20655;-73
2022/08/18 03:34:35;;;;;;;1999.90;999.90;;;;;;;21.62;64.27;94999.19;4993048;28;20497;-74
2022/08/18 03:37:00;;;;;;;1999.90;999.90;;;;;;;20.84;66.08;94934.47;4993264;28;20065;-74
2022/08/18 03:39:26;;;;;;;1999.90;999.90;;;;;;;20.97;65.73;94926.84;4992165;28;20190;-74
2022/08/18 03:41:54;;;;;;;1999.90;999.90;;;;;;;21.54;65.06;94997.59;4992652;28;20034;-75
2022/08/18 03:44:21;;;;;;;1999.90;999.90;;;;;;;21.45;64.11;94941.13;4989406;28;20109;-73
2022/08/18 03:46:47;;;;;;;1999.90;999.90;;;;;;;21.80;63.66;94991.16;4992459;28;20034;-74
2022/08/18 03:49:12;;;;;;;1999.90;999.90;;;;;;;21.89;63.83;95007.06;4994065;28;20065;-74
2022/08/18 03:51:47;;;;;;;1999.90;999.90;;;;;;;21.77;62.84;94967.56;4992050;28;20062;-74
2022/08/18 03:54:15;;;;;;;1999.90;999.90;;;;;;;21.77;62.88;94956.75;4992257;28;20542;-74
2022/08/18 03:56:42;;;;;;;1999.90;999.90;;;;;;;21.82;63.14;94958.31;4993050;28;20120;-73
2022/08/18 03:59:13;;;;;;;1999.90;999.90;;;;;;;22.10;62.68;94988.19;4992996;28;20069;-73
2022/08/18 04:01:40;;;;;;;1999.90;999.90;;;;;;;21.89;62.64;94966.44;4992654;28;20041;-73
2022/08/18 04:04:11;;;;;;;1999.90;999.90;;;;;;;21.86;62.66;94983.47;4992078;28;20483;-73
2022/08/18 04:06:40;;;;;;;1999.90;999.90;;;;;;;22.09;62.60;95004.84;4991857;28;20113;-74
2022/08/18 04:09:09;;;;;;;1999.90;999.90;;;;;;;21.84;62.74;94978.41;4991636;28;20034;-73
2022/08/18 04:11:36;;;;;;;1999.90;999.90;;;;;;;21.72;62.68;94947.03;4992264;28;20368;-74
2022/08/18 04:14:02;;;;;;;1999.90;999.90;;;;;;;22.08;62.37;94995.16;4992544;28;20030;-73
2022/08/18 04:16:33;;;;;;;1999.90;999.90;;;;;;;22.07;62.32;94991.69;4990530;28;20538;-73
2022/08/18 04:19:01;;;;;;;1999.90;999.90;;;;;;;22.07;62.19;94986.28;4992680;28;20037;-74
2022/08/18 04:21:30;;;;;;;1999.90;999.90;;;;;;;21.73;62.32;94924.22;4991002;28;20076;-74
2022/08/18 04:23:56;;;;;;;1999.90;999.90;;;;;;;21.65;62.55;94930.78;4992992;28;20022;-74
2022/08/18 04:26:21;;;;;;;1999.90;999.90;;;;;;;21.79;62.32;94930.81;4992292;28;20030;-74
2022/08/18 04:28:46;;;;;;;1999.90;999.90;;;;;;;22.04;62.41;94966.13;4992569;28;20109;-74
2022/08/18 04:31:14;;;;;;;1999.90;999.90;;;;;;;21.73;61.90;94924.22;4991095;28;20375;-74
2022/08/18 04:33:40;;;;;;;1999.90;999.90;;;;;;;22.01;62.01;94947.16;4990633;28;20037;-73
2022/08/18 04:36:11;;;;;;;1999.90;999.90;;;;;;;21.81;61.79;94922.34;4990848;28;20483;-74
2022/08/18 04:38:38;;;;;;;1999.90;999.90;;;;;;;21.95;61.85;94940.56;4992282;28;20049;-73
2022/08/18 04:41:05;;;;;;;1999.90;999.90;;;;;;;21.88;61.44;94925.06;4990336;28;20558;-75
2022/08/18 04:43:31;;;;;;;1999.90;999.90;;;;;;;22.16;61.28;94954.22;4992238;28;20117;-73
2022/08/18 04:46:00;;;;;;;1999.90;999.90;;;;;;;22.18;60.97;94938.34;4990574;28;20692;-75
2022/08/18 04:48:32;;;;;;;1999.90;999.90;;;;;;;22.03;60.91;94894.16;4992356;28;20062;-74
2022/08/18 04:50:57;;;;;;;1999.90;999.90;;;;;;;22.31;60.35;94936.81;4991015;28;20026;-74
2022/08/18 04:56:07;;;;;;;1999.90;999.90;;;;;;;22.74;59.40;94955.88;4992870;28;20582;-74
2022/08/18 04:58:34;;;;;;;1999.90;999.90;;;;;;;22.81;58.88;94958.56;4991045;28;20030;-73
2022/08/18 05:01:00;;;;;;;1999.90;999.90;;;;;;;22.05;59.65;94910.78;4988939;28;20046;-73
2022/08/18 05:03:26;;;;;;;1999.90;999.90;;;;;;;22.33;59.61;94938.38;4990713;28;20121;-74
2022/08/18 05:05:53;;;;;;;1999.90;999.90;;;;;;;22.27;59.82;94933.34;4990478;28;20058;-74
2022/08/18 05:08:19;;;;;;;1999.90;999.90;;;;;;;22.93;58.94;94959.38;4991517;28;20026;-75
2022/08/18 05:10:46;;;;;;;1999.90;999.90;;;;;;;23.05;58.95;94967.16;4991307;28;20141;-74
2022/08/18 05:13:15;;;;;;;1999.90;999.90;;;;;;;22.91;58.50;94946.22;4990743;28;20345;-73
2022/08/18 05:15:41;;;;;;;1999.90;999.90;;;;;;;23.14;58.13;94953.97;4989431;28;20112;-74
2022/08/18 05:18:06;;;;;;;1999.90;999.90;;;;;;;23.56;57.45;94990.34;4971212;28;20441;-74
2022/08/18 05:20:32;;;;;;;1999.90;999.90;;;;;;;23.51;56.64;94988.03;4975470;28;20145;-74
2022/08/18 05:22:57;;;;;;;1999.90;999.90;;;;;;;23.32;56.51;94946.56;4990187;28;20027;-74
2022/08/18 05:25:22;;;;;;;1999.90;999.90;;;;;;;23.85;56.37;94980.22;4990032;28;20037;-75
2022/08/18 05:27:48;;;;;;;1999.90;999.90;;;;;;;24.12;56.02;94996.81;4991240;28;20109;-75
2022/08/18 05:30:14;;;;;;;1999.90;999.90;;;;;;;24.24;55.07;95009.19;4990171;28;20161;-74
2022/08/18 05:32:43;;;;;;;1999.90;999.90;;;;;;;24.70;54.54;95027.25;4989681;28;20031;-75
2022/08/18 05:35:14;;;;;;;1999.90;999.90;;;;;;;24.66;53.65;94994.63;4990017;28;20022;-75
2022/08/18 05:38:10;;;;;;;1999.90;999.90;;;;;;;24.85;53.54;95043.09;4991977;28;20018;-78
2022/08/18 05:40:36;;;;;;;1999.90;999.90;;;;;;;24.87;52.87;94974.66;4990086;28;20034;-75
2022/08/18 05:43:03;;;;;;;1999.90;999.90;;;;;;;24.87;53.01;95029.09;4991807;28;20041;-77
2022/08/18 05:45:29;;;;;;;1999.90;999.90;;;;;;;23.40;56.73;95011.72;4989383;28;20050;-75
2022/08/18 05:47:58;;;;;;;1999.90;999.90;;;;;;;23.99;55.99;95025.59;4991644;28;20034;-77
2022/08/18 05:50:25;;;;;;;1999.90;999.90;;;;;;;23.90;56.55;95036.09;4990707;28;20093;-78
2022/08/18 05:53:02;;;;;;;1999.90;999.90;;;;;;;24.24;55.46;95018.13;4990911;28;20744;-76
2022/08/18 05:58:41;;;;;;;1999.90;999.90;;;;;;;24.16;55.37;95051.16;4992537;28;20600;-77
2022/08/18 06:01:15;;;;;;;1999.90;999.90;;;;;;;24.23;55.36;95016.56;4986303;28;20027;-77
2022/08/18 06:03:48;;;;;;;1999.90;999.90;;;;;;;23.91;55.72;95026.78;4972544;28;20161;-77
2022/08/18 06:06:21;;;;;;;1999.90;999.90;;;;;;;23.74;56.45;95029.13;4985964;28;20491;-77
2022/08/18 06:09:16;;;;;;;1999.90;999.90;;;;;;;23.88;56.06;95041.13;4990699;28;20121;-76
2022/08/18 06:11:42;;;;;;;1999.90;999.90;;;;;;;24.06;55.76;95048.09;4971282;28;20456;-76
2022/08/18 06:14:07;;;;;;;1999.90;999.90;;;;;;;24.16;54.98;95056.56;4987036;28;20050;-72
2022/08/18 06:16:52;;;;;;;1999.90;999.90;;;;;;;24.18;55.35;95048.81;4988745;28;20030;-71
2022/08/18 06:19:25;;;;;;;1999.90;999.90;;;;;;;23.72;56.84;95045.06;4990633;28;20089;-72
2022/08/18 06:21:58;;;;;;;1999.90;999.90;;;;;;;23.76;56.64;95050.47;4989608;28;20038;-72
2022/08/18 06:24:48;;;;;;;1999.90;999.90;;;;;;;24.34;55.10;95054.59;4989128;28;20540;-69
2022/08/18 06:27:54;;;;;;;1999.90;999.90;;;;;;;24.46;55.01;95050.69;4991223;28;20034;-71
2022/08/18 06:30:36;;;;;;;1999.90;999.90;;;;;;;24.04;54.99;95055.06;4986034;28;20046;-70
2022/08/18 06:33:21;;;;;;;;;;;;;;;24.02;55.86;95058.19;4991020;28;20356;-70
2022/08/18 06:35:49;;;;;;;1999.90;999.90;;;;;;;23.61;56.86;95046.97;4988518;28;19913;-69
2022/08/18 06:41:02;;;;;;;1999.90;999.90;;;;;;;23.41;58.00;95040.41;4990927;28;20041;-72
2022/08/18 06:43:31;;;;;;;1999.90;999.90;;;;;;;23.90;56.44;95025.97;4988853;28;20101;-71
2022/08/18 06:45:56;;;;;;;1999.90;999.90;;;;;;;23.99;56.43;95028.31;4988688;28;20064;-71
2022/08/18 06:48:42;;;;;;;1999.90;999.90;;;;;;;24.69;54.91;95042.03;4986605;28;20066;-72
2022/08/18 06:51:12;;;;;;;1999.90;999.90;;;;;;;24.16;55.52;95049.22;4988457;28;20036;-71
2022/08/18 06:53:59;;;;;;;1999.90;999.90;;;;;;;23.50;58.26;95047.00;4983790;28;20030;-70
2022/08/18 06:56:39;;;;;;;1999.90;999.90;;;;;;;23.54;58.17;95025.25;4981881;28;20079;-71
2022/08/18 06:59:24;;;;;;;1999.90;999.90;;;;;;;23.90;57.03;95019.78;4986973;28;20030;-70
2022/08/18 07:01:59;;;;;;;1999.90;999.90;;;;;;;23.68;57.60;95027.97;4983580;28;20030;-70
2022/08/18 07:04:42;;;;;;;1999.90;999.90;;;;;;;23.99;56.19;95018.19;4988512;28;20026;-71
2022/08/18 07:07:35;;;;;;;1999.90;999.90;;;;;;;23.97;56.56;95017.84;4987180;28;20048;-71
2022/08/18 07:10:03;;;;;;;1999.90;999.90;;;;;;;23.55;57.99;95018.69;4980015;28;20026;-74
2022/08/18 07:12:29;;;;;;;1999.90;999.90;;;;;;;24.35;55.97;95018.88;4987327;28;20069;-71
2022/08/18 07:15:00;;;;;;;1999.90;999.90;;;;;;;23.48;58.17;95027.59;4996517;28;20026;-76
2022/08/18 07:17:32;;;;;;;1999.90;999.90;;;;;;;23.53;58.99;95018.28;4992739;28;20030;-71
2022/08/18 07:20:20;;;;;;;1999.90;999.90;;;;;;;23.28;59.62;95013.63;5003100;28;20086;-71
2022/08/18 07:23:01;;;;;;;1999.90;999.90;;;;;;;23.67;58.55;95023.72;4980223;28;20771;-71
2022/08/18 07:25:47;;;;;;;1999.90;999.90;;;;;;;24.16;57.26;95023.97;5014830;28;20495;-75
2022/08/18 07:28:35;;;;;;;1999.90;999.90;;;;;;;23.88;58.46;95009.31;4989955;28;20043;-81
2022/08/18 07:31:30;;;;;;;1999.90;999.90;;;;;;;24.44;57.26;95007.56;4989443;28;20411;-73
2022/08/18 07:34:05;;;;;;;1999.90;999.90;;;;;;;23.81;58.01;95007.41;4981214;28;20038;-79
2022/08/18 07:36:40;;;;;;;1999.90;999.90;;;;;;;23.74;57.91;94996.53;4991017;28;20022;-77
2022/08/18 07:39:14;;;;;;;1999.90;999.90;;;;;;;23.53;59.16;94996.56;4991481;28;20472;-75
2022/08/18 07:41:47;;;;;;;1999.90;999.90;;;;;;;24.38;57.09;95015.38;4989070;28;20104;-73
2022/08/18 07:44:32;;;;;;;1999.90;999.90;;;;;;;23.40;59.00;95017.16;4989986;28;20479;-73
2022/08/18 07:47:02;;;;;;;1999.90;999.90;;;;;;;24.44;56.00;95009.53;4994581;23;20043;-68
2022/08/18 07:49:35;;;;;;;1999.90;999.90;;;;;;;25.28;54.38;94996.53;4988793;28;20105;-69
2022/08/18 07:52:03;;;;;;;1999.90;999.90;;;;;;;25.56;52.31;95008.38;4989066;28;20209;-68
2022/08/18 07:55:05;;;;;;;1999.90;999.90;;;;;;;24.93;53.63;95015.81;4989310;28;20038;-68
2022/08/18 07:57:44;;;;;;;1999.90;999.90;;;;;;;25.67;52.28;95011.75;4969686;28;20687;-68
2022/08/18 08:00:28;;;;;;;1999.90;999.90;;;;;;;25.23;52.52;95010.56;4969879;28;20035;-68
2022/08/18 08:03:11;;;;;;;1999.90;999.90;;;;;;;25.06;52.80;95014.19;4976011;28;20112;-68
2022/08/18 08:05:53;;;;;;;1999.90;999.90;;;;;;;25.36;51.78;95013.59;4989019;28;20030;-68
2022/08/18 08:08:25;;;;;;;1999.90;999.90;;;;;;;26.65;49.05;95002.88;4987156;28;20364;-65
2022/08/18 08:11:29;;;;;;;1999.90;999.90;;;;;;;25.15;52.11;95026.22;4975648;28;20110;-65
2022/08/18 08:14:00;;;;;;;1999.90;999.90;;;;;;;24.89;52.69;95013.91;4986015;28;20030;-65
2022/08/18 08:16:56;;;;;;;1999.90;999.90;;;;;;;25.08;52.14;95020.03;4989327;28;20034;-67
2022/08/18 08:19:42;;;;;;;1999.90;999.90;;;;;;;26.55;49.28;95003.78;4991696;28;20031;-66
2022/08/18 08:22:22;;;;;;;1999.90;999.90;;;;;;;25.86;50.54;95035.72;4992425;28;20072;-66
2022/08/18 08:25:13;;;;;;;1999.90;999.90;;;;;;;26.29;50.15;95031.75;4992626;28;20484;-65
2022/08/18 08:28:00;;;;;;;1999.90;999.90;;;;;;;26.22;49.51;95012.75;4991274;28;20077;-65
2022/08/18 08:30:28;;;;;;;1999.90;999.90;;;;;;;24.43;55.21;95018.84;4992005;28;20037;-65
2022/08/18 08:33:22;;;;;;;1999.90;999.90;;;;;;;25.66;52.55;95016.44;4992066;28;20034;-64
2022/08/18 08:35:57;;;;;;;1999.90;999.90;;;;;;;25.07;53.32;94983.88;4989137;28;20109;-66
2022/08/18 08:38:33;;;;;;;1999.90;999.90;;;;;;;25.13;52.59;94963.25;4988835;28;20026;-65
2022/08/18 08:41:02;;;;;;;1999.90;999.90;;;;;;;25.70;51.83;95002.00;4989802;28;20031;-66
2022/08/18 08:43:39;;;;;;;1999.90;999.90;;;;;;;25.61;51.05;94983.41;4991061;28;20519;-66
2022/08/18 08:46:18;;;;;;;1999.90;999.90;;;;;;;26.42;50.17;94991.91;4989275;28;20072;-68
2022/08/18 08:48:53;;;;;;;1999.90;999.90;;;;;;;26.26;49.18;95000.63;4990373;28;20033;-67
2022/08/18 08:51:41;;;;;;;1999.90;999.90;;;;;;;25.54;50.62;94999.81;4990930;28;20076;-67
2022/08/18 08:54:22;;;;;;;1999.90;999.90;;;;;;;25.58;50.07;95006.00;4990329;28;20114;-67
2022/08/18 08:56:50;;;;;;;1999.90;999.90;;;;;;;26.00;49.77;95001.31;4991269;28;20037;-68
2022/08/18 08:59:20;;;;;;;1999.90;999.90;;;;;;;25.42;50.46;95001.09;4991792;28;20113;-68
2022/08/18 09:02:18;;;;;;;1999.90;999.90;;;;;;;25.78;49.63;94982.47;4990330;28;20534;-67
2022/08/18 09:04:50;;;;;;;1999.90;999.90;;;;;;;26.73;47.01;94968.09;4992964;28;20026;-67
2022/08/18 09:07:49;;;;;;;1999.90;999.90;;;;;;;25.94;48.06;94968.28;4988950;28;20039;-68
2022/08/18 09:10:42;;;;;;;1999.90;999.90;;;;;;;26.01;47.63;94978.34;4989567;28;20038;-67
2022/08/18 09:13:45;;;;;;;1999.90;999.90;;;;;;;25.42;49.04;94982.03;4983674;28;20029;-66
2022/08/18 09:16:15;;;;;;;1999.90;999.90;;;;;;;24.61;48.93;94967.84;4990633;28;20045;-66
2022/08/18 09:19:04;;;;;;;1999.90;999.90;;;;;;;24.41;49.91;94950.50;4992727;28;20093;-66
2022/08/18 09:22:07;;;;;;;1999.90;999.90;;;;;;;24.87;49.25;94985.56;4975097;28;20046;-66
2022/08/18 09:24:45;;;;;;;1999.90;999.90;;;;;;;26.17;45.78;94984.00;4970283;28;20031;-67
2022/08/18 09:27:22;;;;;;;1999.90;999.90;;;;;;;25.64;47.91;94994.28;4983436;28;20022;-68
2022/08/18 09:29:54;;;;;;;1999.90;999.90;;;;;;;25.49;47.77;94967.56;4992078;28;20479;-68
2022/08/18 09:32:21;;;;;;;1999.90;999.90;;;;;;;25.00;48.72;94964.09;4989821;28;20030;-67
2022/08/18 09:35:32;;;;;;;1999.90;999.90;;;;;;;25.89;46.50;94955.09;4991292;28;20419;-68
2022/08/18 09:43:51;;;;;;;1999.90;999.90;;;;;;;25.39;47.63;94964.56;4990458;28;20041;-66
2022/08/18 09:46:42;;;;;;;1999.90;999.90;;;;;;;24.80;48.80;94985.63;4989877;28;20383;-67
2022/08/18 09:49:23;;;;;;;1999.90;999.90;;;;;;;25.52;46.62;94958.59;4973910;28;20096;-67
2022/08/18 09:51:51;;;;;;;1999.90;999.90;;;;;;;25.41;47.25;94956.75;4976029;28;20038;-67
2022/08/18 09:54:23;;;;;;;1999.90;999.90;;;;;;;25.95;46.87;94944.53;4991642;28;20038;-67
2022/08/18 09:56:48;;;;;;;1999.90;999.90;;;;;;;25.98;46.40;94960.06;4991233;28;20034;-67
2022/08/18 09:59:32;;;;;;;1999.90;999.90;;;;;;;25.95;46.18;94958.16;4990464;28;20387;-66
2022/08/18 10:02:22;;;;;;;1999.90;999.90;;;;;;;25.42;46.57;94947.41;4989581;28;20181;-67
2022/08/18 10:04:51;;;;;;;1999.90;999.90;;;;;;;26.29;44.77;94930.88;4962422;28;20050;-67
2022/08/18 10:07:32;;;;;;;1999.90;999.90;;;;;;;27.12;44.17;94936.69;4988988;28;20120;-67
2022/08/18 10:10:23;;;;;;;1999.90;999.90;;;;;;;27.30;43.57;94969.94;4990583;28;20034;-68
2022/08/18 10:13:14;;;;;;;1999.90;999.90;;;;;;;27.30;43.54;94952.78;4989146;28;20035;-68
2022/08/18 10:16:00;;;;;;;1999.90;999.90;;;;;;;26.72;44.17;94982.13;4991480;28;20084;-67
2022/08/18 10:18:44;;;;;;;1999.90;999.90;;;;;;;26.98;43.87;94988.78;4990077;28;20034;-68
2022/08/18 10:21:17;;;;;;;1999.90;999.90;;;;;;;27.66;42.46;94975.53;4990399;28;20547;-69
2022/08/18 10:24:04;;;;;;;1999.90;999.90;;;;;;;27.75;42.08;94980.50;4989457;28;20081;-68
2022/08/18 10:26:29;;;;;;;1999.90;999.90;;;;;;;26.55;45.73;94983.91;4990211;28;20810;-68
2022/08/18 10:29:04;;;;;;;1999.90;999.90;;;;;;;25.83;46.60;94965.69;4987930;28;20026;-68
2022/08/18 10:31:49;;;;;;;1999.90;999.90;;;;;;;27.39;43.71;94975.63;4990692;28;20308;-70
2022/08/18 10:34:40;;;;;;;1999.90;999.90;;;;;;;27.39;44.16;94961.22;4981315;28;20037;-67
2022/08/18 10:37:36;;;;;;;1999.90;999.90;;;;;;;28.07;42.97;94970.91;4989460;28;20096;-68
2022/08/18 10:40:14;;;;;;;1999.90;999.90;;;;;;;26.94;44.92;94973.22;4988509;28;20387;-67
2022/08/18 10:42:51;;;;;;;1999.90;999.90;;;;;;;26.89;45.12;94956.53;4989051;28;20034;-67
2022/08/18 10:45:30;;;;;;;1999.90;999.90;;;;;;;27.26;45.14;94960.25;4988916;28;20579;-67
2022/08/18 10:48:19;;;;;;;1999.90;999.90;;;;;;;27.23;44.32;94961.88;4987944;28;20677;-67
2022/08/18 10:50:52;;;;;;;1999.90;999.90;;;;;;;28.54;42.12;94955.09;4976437;28;20129;-64
2022/08/18 10:53:32;;;;;;;1999.90;999.90;;;;;;;28.89;40.79;94952.75;4988806;28;20101;-66
2022/08/18 10:56:30;;;;;;;1999.90;999.90;;;;;;;28.23;41.63;94949.09;4971483;28;20035;-65
2022/08/18 10:59:14;;;;;;;1999.90;999.90;;;;;;;27.45;42.82;94948.63;4978419;28;20042;-65
2022/08/18 11:02:03;;;;;;;1999.90;999.90;;;;;;;27.34;43.59;94953.50;4971291;28;20081;-65
2022/08/18 11:04:39;;;;;;;1999.90;999.90;;;;;;;27.92;42.38;94918.47;4990754;28;20121;-64
2022/08/18 11:07:18;;;;;;;1999.90;999.90;;;;;;;28.37;41.19;94912.50;4989845;28;20125;-66
2022/08/18 11:09:46;;;;;;;1999.90;999.90;;;;;;;28.72;40.26;94932.81;4988921;28;20027;-66
2022/08/18 11:12:13;;;;;;;1999.90;999.90;;;;;;;28.48;39.99;94929.44;4989839;28;20041;-66
2022/08/18 11:14:38;;;;;;;1999.90;999.90;;;;;;;29.65;38.71;94919.59;4989112;28;20034;-65
2022/08/18 11:17:39;;;;;;;1999.90;999.90;;;;;;;29.87;37.60;94908.81;4988714;28;20112;-66
2022/08/18 11:20:11;;;;;;;1999.90;999.90;;;;;;;30.68;36.42;94905.63;4895350;29;20397;-66
2022/08/18 11:22:36;;;;;;;1999.90;999.90;;;;;;;29.17;37.81;94899.28;4975510;28;20471;-68
2022/08/18 11:25:17;;;;;;;1999.90;999.90;;;;;;;29.84;37.79;94894.00;4988709;28;20036;-67
2022/08/18 11:27:46;;;;;;;1999.90;999.90;;;;;;;28.72;40.29;94878.06;4988250;28;20022;-67
2022/08/18 11:30:11;;;;;;;1999.90;999.90;;;;;;;27.88;42.14;94872.06;4990434;28;20042;-66
2022/08/18 11:32:39;;;;;;;1999.90;999.90;;;;;;;27.66;42.21;94862.75;4989134;28;20382;-66
2022/08/18 11:35:04;;;;;;;1999.90;999.90;;;;;;;28.87;40.54;94870.25;4989469;28;20038;-66
2022/08/18 11:37:47;;;;;;;1999.90;999.90;;;;;;;28.80;40.50;94870.44;4989366;28;20113;-67
2022/08/18 11:40:25;;;;;;;1999.90;999.90;;;;;;;28.41;40.36;94864.72;4989679;28;20476;-66
2022/08/18 11:43:25;;;;;;;1999.90;999.90;;;;;;;29.38;38.42;94879.56;4989007;28;20676;-66
2022/08/18 11:45:57;;;;;;;1999.90;999.90;;;;;;;29.71;38.52;94852.06;4957656;28;20483;-66